Time;durP1;ratioP1;P1;durP2;ratioP2;P2;SDS_P1;SDS_P2;PMS_P1;PMS_P2;Temp;Humidity;BMP_temperature;BMP_pressure;BME280_temperature;BME280_humidity;BME280_pressure;Samples;Min_cycle;Max_cycle;Signal;HPM_P1;HPM_P2
2023/05/04 00:01:52;;;;;;;4.78;2.30;;;7.60;97.20;;;;;;4972559;28;20117;-65
2023/05/04 00:04:19;;;;;;;4.95;1.90;;;7.60;97.30;;;;;;4971222;28;20038;-65
2023/05/04 00:06:45;;;;;;;3.90;2.22;;;7.60;97.40;;;;;;4973388;28;20034;-65
2023/05/04 00:09:12;;;;;;;3.30;1.70;;;7.50;97.30;;;;;;4970309;28;20049;-65
2023/05/04 00:11:38;;;;;;;3.95;1.98;;;7.50;97.40;;;;;;4974124;28;20081;-65
2023/05/04 00:14:04;;;;;;;3.55;2.15;;;7.50;97.60;;;;;;4971391;28;20039;-64
2023/05/04 00:16:30;;;;;;;4.45;2.08;;;7.50;97.60;;;;;;4973796;28;20075;-65
2023/05/04 00:18:55;;;;;;;5.43;2.10;;;7.40;97.60;;;;;;4967844;28;20076;-65
2023/05/04 00:21:21;;;;;;;2.80;1.80;;;7.40;97.90;;;;;;4969129;28;20675;-65
2023/05/04 00:23:47;;;;;;;4.88;1.88;;;7.30;98.00;;;;;;4972260;28;20030;-65
2023/05/04 00:26:13;;;;;;;4.57;2.28;;;7.40;98.00;;;;;;4973835;28;20034;-64
2023/05/04 00:28:40;;;;;;;6.78;2.40;;;7.40;98.10;;;;;;4971308;28;20863;-65
2023/05/04 00:31:06;;;;;;;5.28;2.25;;;7.40;98.20;;;;;;4966505;28;20043;-65
2023/05/04 00:33:31;;;;;;;6.53;2.33;;;7.30;98.30;;;;;;4970201;28;20054;-65
2023/05/04 00:35:57;;;;;;;5.93;2.25;;;7.40;98.40;;;;;;4961518;28;20058;-65
2023/05/04 00:38:23;;;;;;;5.32;2.50;;;7.30;98.30;;;;;;4974332;28;20038;-65
2023/05/04 00:40:49;;;;;;;3.78;2.45;;;7.40;98.40;;;;;;4969354;28;20034;-65
2023/05/04 00:43:15;;;;;;;8.05;3.38;;;7.40;98.50;;;;;;4980937;28;20128;-65
2023/05/04 00:45:41;;;;;;;8.52;3.08;;;7.30;98.60;;;;;;4967665;28;20426;-64
2023/05/04 00:48:07;;;;;;;3.80;2.30;;;7.40;98.70;;;;;;4970440;28;20809;-65
2023/05/04 00:50:33;;;;;;;7.30;2.88;;;7.30;98.70;;;;;;4969710;28;20522;-65
2023/05/04 00:53:04;;;;;;;7.38;2.80;;;7.30;98.80;;;;;;4972644;28;20038;-65
2023/05/04 00:55:31;;;;;;;4.22;2.80;;;7.30;98.90;;;;;;4973026;28;20069;-65
2023/05/04 00:57:57;;;;;;;5.95;2.75;;;7.40;99.00;;;;;;4971649;28;20051;-65
2023/05/04 01:00:22;;;;;;;8.25;2.97;;;7.30;99.00;;;;;;4975855;28;20057;-65
2023/05/04 01:02:49;;;;;;;5.18;2.55;;;7.30;99.10;;;;;;4973128;28;20058;-65
2023/05/04 01:05:15;;;;;;;6.70;2.70;;;7.30;99.10;;;;;;4971652;28;20031;-65
2023/05/04 01:08:05;;;;;;;6.35;3.20;;;7.30;99.50;;;;;;4969181;28;20038;-65
2023/05/04 01:10:56;;;;;;;8.55;3.15;;;7.30;99.50;;;;;;4956732;28;20062;-65
2023/05/04 01:13:24;;;;;;;6.25;2.83;;;7.30;99.50;;;;;;4968889;28;20750;-64
2023/05/04 01:15:50;;;;;;;8.43;3.22;;;7.30;99.50;;;;;;4969172;28;20078;-64
2023/05/04 01:18:16;;;;;;;7.22;2.95;;;7.30;99.40;;;;;;4970049;28;20026;-65
2023/05/04 01:20:42;;;;;;;6.70;2.95;;;7.30;99.40;;;;;;4969128;28;20031;-65
2023/05/04 01:23:09;;;;;;;6.78;2.67;;;7.30;99.40;;;;;;4969752;28;20255;-65
2023/05/04 01:25:45;;;;;;;7.72;2.90;;;7.30;99.30;;;;;;4969372;28;20033;-65
2023/05/04 01:28:17;;;;;;;3.63;2.53;;;7.30;99.40;;;;;;4968759;28;20030;-64
2023/05/04 01:30:46;;;;;;;4.95;2.60;;;7.30;99.40;;;;;;4971973;28;20034;-65
2023/05/04 01:33:14;;;;;;;7.22;2.47;;;7.30;99.40;;;;;;4970883;28;20054;-65
2023/05/04 01:35:41;;;;;;;5.32;2.38;;;7.30;99.40;;;;;;4974971;28;20116;-65
2023/05/04 01:38:06;;;;;;;4.20;2.47;;;7.20;99.50;;;;;;4965385;28;20125;-65
2023/05/04 01:40:32;;;;;;;4.47;2.55;;;7.10;99.30;;;;;;4972893;28;20627;-65
2023/05/04 01:42:58;;;;;;;5.15;2.50;;;7.10;99.20;;;;;;4974846;28;20061;-65
2023/05/04 01:45:24;;;;;;;3.45;2.40;;;7.00;99.00;;;;;;4965595;28;20031;-65
2023/05/04 01:47:50;;;;;;;9.00;2.88;;;7.00;99.00;;;;;;4965459;28;20089;-65
2023/05/04 01:50:16;;;;;;;5.38;2.33;;;7.00;98.80;;;;;;4966542;28;20031;-63
2023/05/04 01:52:42;;;;;;;6.72;2.55;;;7.00;98.90;;;;;;4963169;28;20061;-65
2023/05/04 01:55:08;;;;;;;6.07;2.30;;;6.90;99.20;;;;;;4965103;28;20599;-65
2023/05/04 01:57:34;;;;;;;4.35;2.15;;;6.90;99.50;;;;;;4963319;28;20861;-64
2023/05/04 02:00:00;;;;;;;4.85;2.63;;;6.80;99.70;;;;;;4967328;28;20149;-65
2023/05/04 02:02:25;;;;;;;5.72;2.65;;;6.80;99.90;;;;;;4947266;28;20022;-64
2023/05/04 02:04:51;;;;;;;5.88;2.67;;;6.80;99.90;;;;;;4962563;28;20061;-65
2023/05/04 02:07:17;;;;;;;6.88;2.83;;;6.80;99.90;;;;;;4967026;28;20150;-65
2023/05/04 02:09:43;;;;;;;5.75;3.03;;;6.70;99.90;;;;;;4968061;28;20049;-64
2023/05/04 02:12:09;;;;;;;4.50;2.47;;;6.70;99.90;;;;;;4963596;28;20035;-64
2023/05/04 02:14:34;;;;;;;5.22;2.50;;;6.70;99.90;;;;;;4966781;28;20125;-65
2023/05/04 02:17:00;;;;;;;7.82;2.72;;;6.70;99.90;;;;;;4967009;28;20049;-65
2023/05/04 02:19:26;;;;;;;8.07;2.78;;;6.70;99.90;;;;;;4967639;28;20030;-65
2023/05/04 02:21:52;;;;;;;7.03;3.38;;;6.70;99.90;;;;;;4966074;28;20041;-65
2023/05/04 02:24:20;;;;;;;5.47;2.75;;;6.70;99.90;;;;;;4960011;28;20775;-65
2023/05/04 02:26:46;;;;;;;7.85;2.70;;;6.70;99.90;;;;;;4964048;28;20027;-65
2023/05/04 02:29:12;;;;;;;5.50;2.42;;;6.60;99.90;;;;;;4965055;28;20533;-65
2023/05/04 02:31:38;;;;;;;9.10;2.53;;;6.70;99.90;;;;;;4968701;28;20783;-64
2023/05/04 02:34:03;;;;;;;3.97;2.67;;;6.60;99.90;;;;;;4966808;28;20035;-65
2023/05/04 02:36:30;;;;;;;5.10;2.83;;;6.60;99.90;;;;;;4964508;28;20035;-64
2023/05/04 02:38:57;;;;;;;5.90;2.50;;;6.50;99.90;;;;;;4961945;28;20070;-65
2023/05/04 02:41:23;;;;;;;4.43;2.75;;;6.50;99.90;;;;;;4960549;28;20085;-65
2023/05/04 02:43:50;;;;;;;7.22;2.13;;;6.40;99.90;;;;;;4967220;28;20133;-65
2023/05/04 02:46:18;;;;;;;5.00;2.38;;;6.40;99.90;;;;;;4964195;28;20038;-65
2023/05/04 02:48:44;;;;;;;5.55;2.40;;;6.30;99.90;;;;;;4972121;28;20509;-65
2023/05/04 02:51:10;;;;;;;5.82;2.20;;;6.30;99.90;;;;;;4964326;28;20035;-61
2023/05/04 02:53:36;;;;;;;3.95;2.20;;;6.20;99.90;;;;;;4966424;28;20038;-65
2023/05/04 02:56:02;;;;;;;7.78;2.63;;;6.20;99.80;;;;;;4966036;28;20049;-65
2023/05/04 02:58:28;;;;;;;8.63;2.67;;;6.20;99.80;;;;;;4967684;28;20058;-64
2023/05/04 03:00:54;;;;;;;5.47;2.75;;;6.10;99.80;;;;;;4965475;28;20852;-65
2023/05/04 03:03:20;;;;;;;9.45;3.05;;;6.10;99.70;;;;;;4968125;28;20092;-65
2023/05/04 03:05:46;;;;;;;8.07;2.47;;;6.10;99.70;;;;;;4968538;28;20034;-64
2023/05/04 03:08:12;;;;;;;7.20;2.70;;;6.10;99.90;;;;;;4970066;28;20043;-63
2023/05/04 03:10:38;;;;;;;7.78;2.30;;;6.00;99.90;;;;;;4970686;28;20030;-65
2023/05/04 03:13:04;;;;;;;4.75;2.17;;;5.90;99.90;;;;;;4960052;28;20038;-65
2023/05/04 03:15:34;;;;;;;4.47;2.20;;;5.90;99.90;;;;;;4976158;28;20030;-64
2023/05/04 03:18:00;;;;;;;6.72;2.30;;;5.90;99.90;;;;;;4966660;28;20038;-64
2023/05/04 03:20:27;;;;;;;5.35;2.47;;;5.80;99.90;;;;;;4963584;28;20681;-65
2023/05/04 03:22:53;;;;;;;10.90;2.55;;;5.90;99.90;;;;;;4968307;28;20049;-65
2023/05/04 03:25:20;;;;;;;4.63;2.22;;;5.90;99.90;;;;;;4966610;28;20754;-64
2023/05/04 03:27:45;;;;;;;5.78;2.67;;;5.90;99.90;;;;;;4954203;28;20031;-64
2023/05/04 03:30:12;;;;;;;3.85;2.65;;;5.80;99.90;;;;;;4959577;28;20089;-65
2023/05/04 03:32:38;;;;;;;4.97;2.35;;;5.80;99.90;;;;;;4970189;28;20393;-65
2023/05/04 03:35:04;;;;;;;4.18;2.17;;;5.80;99.90;;;;;;4966434;28;20035;-64
2023/05/04 03:37:30;;;;;;;3.47;2.42;;;5.80;99.90;;;;;;4974366;28;20561;-65
2023/05/04 03:39:56;;;;;;;4.80;2.90;;;5.80;99.90;;;;;;4971864;28;20034;-64
2023/05/04 03:42:22;;;;;;;5.78;2.42;;;5.80;99.90;;;;;;4969183;28;20520;-65
2023/05/04 03:44:48;;;;;;;5.88;2.90;;;5.80;99.90;;;;;;4963226;28;20038;-65
2023/05/04 03:47:14;;;;;;;4.18;2.95;;;5.80;99.90;;;;;;4957280;28;20057;-65
2023/05/04 03:49:39;;;;;;;7.13;3.15;;;5.70;99.90;;;;;;4970914;28;20022;-65
2023/05/04 03:52:05;;;;;;;10.93;3.55;;;5.70;99.90;;;;;;4963470;28;20030;-64
2023/05/04 03:54:31;;;;;;;6.35;3.03;;;5.80;99.90;;;;;;4968043;28;20343;-64
2023/05/04 03:56:57;;;;;;;4.93;2.83;;;5.80;99.90;;;;;;4971762;28;20533;-66
2023/05/04 03:59:23;;;;;;;3.53;2.28;;;5.80;99.90;;;;;;4968044;28;20093;-64
2023/05/04 04:01:49;;;;;;;7.07;2.95;;;5.80;99.90;;;;;;4969540;28;20023;-65
2023/05/04 04:04:15;;;;;;;7.10;2.80;;;5.80;99.90;;;;;;4967270;28;20063;-65
2023/05/04 04:06:41;;;;;;;6.57;3.50;;;5.80;99.90;;;;;;4960790;28;20033;-65
2023/05/04 04:09:07;;;;;;;5.40;2.10;;;5.70;99.90;;;;;;4956603;28;20126;-64
2023/05/04 04:11:33;;;;;;;6.25;3.17;;;5.70;99.90;;;;;;4958153;28;20038;-65
2023/05/04 04:13:59;;;;;;;7.10;3.47;;;5.80;99.90;;;;;;4951693;28;20042;-65
2023/05/04 04:16:25;;;;;;;9.60;3.13;;;5.70;99.90;;;;;;4957668;28;20026;-64
2023/05/04 04:18:51;;;;;;;5.75;3.20;;;5.80;99.90;;;;;;4953657;28;20804;-65
2023/05/04 04:21:16;;;;;;;6.43;3.17;;;5.80;99.90;;;;;;4957737;28;20063;-64
2023/05/04 04:23:42;;;;;;;6.55;3.03;;;5.80;99.90;;;;;;4967890;28;20030;-65
2023/05/04 04:26:09;;;;;;;5.78;2.90;;;5.90;99.90;;;;;;4965665;28;20049;-64
2023/05/04 04:28:35;;;;;;;10.70;3.90;;;5.90;99.90;;;;;;4964084;28;20831;-64
2023/05/04 04:31:02;;;;;;;8.32;4.38;;;5.90;99.90;;;;;;4964560;28;20455;-64
2023/05/04 04:33:28;;;;;;;10.95;4.60;;;5.90;99.90;;;;;;4960044;28;20031;-64
2023/05/04 04:35:54;;;;;;;13.65;6.18;;;6.00;99.90;;;;;;4967154;28;20046;-65
2023/05/04 04:38:20;;;;;;;14.60;5.63;;;6.10;99.90;;;;;;4967987;28;20042;-65
2023/05/04 04:40:46;;;;;;;12.65;5.68;;;6.10;99.90;;;;;;4964088;28;20034;-65
2023/05/04 04:43:13;;;;;;;11.40;5.20;;;6.20;99.90;;;;;;4961894;28;20037;-65
2023/05/04 04:45:40;;;;;;;11.68;5.72;;;6.20;99.90;;;;;;4967235;28;20097;-65
2023/05/04 04:48:06;;;;;;;14.27;6.70;;;6.30;99.90;;;;;;4974055;28;20037;-65
2023/05/04 04:50:31;;;;;;;15.55;6.63;;;6.30;99.90;;;;;;4972130;28;20407;-65
2023/05/04 04:52:58;;;;;;;16.33;6.85;;;6.40;99.90;;;;;;4964204;28;20054;-65
2023/05/04 04:55:24;;;;;;;11.45;6.30;;;6.50;99.90;;;;;;4964917;28;20034;-65
2023/05/04 04:57:51;;;;;;;13.70;5.97;;;6.50;99.90;;;;;;4972240;28;20062;-63
2023/05/04 05:00:18;;;;;;;15.18;5.80;;;6.60;99.90;;;;;;4971687;28;20062;-65
2023/05/04 05:02:44;;;;;;;12.10;5.07;;;6.70;99.90;;;;;;4971463;28;20057;-65
2023/05/04 05:05:11;;;;;;;16.67;5.90;;;6.80;99.90;;;;;;4969120;28;20880;-65
2023/05/04 05:07:37;;;;;;;12.02;5.43;;;6.90;99.90;;;;;;4966460;28;20031;-68
2023/05/04 05:10:03;;;;;;;10.57;4.72;;;7.00;99.90;;;;;;4960808;28;20047;-67
2023/05/04 05:12:29;;;;;;;9.70;4.25;;;7.10;99.90;;;;;;4963861;28;20030;-67
2023/05/04 05:14:55;;;;;;;12.15;5.07;;;7.20;99.90;;;;;;4965445;28;20038;-65
2023/05/04 05:17:21;;;;;;;10.13;4.13;;;7.40;99.90;;;;;;4962705;28;20034;-66
2023/05/04 05:19:48;;;;;;;11.40;3.78;;;7.50;99.90;;;;;;4962814;28;20230;-67
2023/05/04 05:22:13;;;;;;;10.95;3.55;;;7.70;99.90;;;;;;4966270;28;20031;-67
2023/05/04 05:24:39;;;;;;;8.02;3.55;;;7.90;99.90;;;;;;4964299;28;20490;-67
2023/05/04 05:27:05;;;;;;;7.95;2.90;;;8.10;99.90;;;;;;4970758;28;20066;-66
2023/05/04 05:29:31;;;;;;;12.07;3.22;;;8.40;99.90;;;;;;4970339;28;20038;-67
2023/05/04 05:31:57;;;;;;;7.65;3.00;;;8.70;99.90;;;;;;4969716;28;20045;-66
2023/05/04 05:34:22;;;;;;;8.13;3.42;;;9.20;99.90;;;;;;4968029;28;20046;-66
2023/05/04 05:36:48;;;;;;;7.97;3.42;;;9.90;98.50;;;;;;4961251;28;20041;-67
2023/05/04 05:39:15;;;;;;;9.88;3.83;;;10.60;97.00;;;;;;4966293;28;20049;-66
2023/05/04 05:41:40;;;;;;;13.15;3.60;;;11.20;95.90;;;;;;4963231;28;20677;-66
2023/05/04 05:44:06;;;;;;;5.53;2.75;;;11.80;94.60;;;;;;4960963;28;20137;-67
2023/05/04 05:46:32;;;;;;;6.15;2.70;;;12.40;92.20;;;;;;4961985;28;20054;-66
2023/05/04 05:48:58;;;;;;;10.88;3.45;;;12.90;91.30;;;;;;4957807;28;20114;-66
2023/05/04 05:51:24;;;;;;;8.35;2.85;;;13.20;89.90;;;;;;4960456;28;20500;-67
2023/05/04 05:53:50;;;;;;;8.48;3.60;;;13.40;86.40;;;;;;4966343;28;20038;-67
2023/05/04 05:56:16;;;;;;;6.20;3.28;;;13.70;86.50;;;;;;4953032;28;20039;-66
2023/05/04 05:58:42;;;;;;;7.55;3.05;;;14.10;84.00;;;;;;4963181;28;20022;-67
2023/05/04 06:01:08;;;;;;;6.85;3.42;;;14.40;80.90;;;;;;4960701;28;20042;-67
2023/05/04 06:03:33;;;;;;;9.35;3.40;;;14.50;78.70;;;;;;4966270;28;20011;-67
2023/05/04 06:05:59;;;;;;;5.93;2.88;;;14.80;76.80;;;;;;4963102;28;20750;-65
2023/05/04 06:08:25;;;;;;;7.18;2.85;;;15.10;76.70;;;;;;4963552;28;20113;-65
2023/05/04 06:10:51;;;;;;;6.80;2.80;;;15.50;75.80;;;;;;4962055;28;20193;-68
2023/05/04 06:13:17;;;;;;;7.78;3.25;;;15.80;71.40;;;;;;4963507;28;20050;-67
2023/05/04 06:15:52;;;;;;;14.77;3.28;;;16.00;71.40;;;;;;4963966;28;20521;-67
2023/05/04 06:18:19;;;;;;;6.55;3.15;;;16.20;69.60;;;;;;4965036;28;20047;-67
2023/05/04 06:20:45;;;;;;;7.40;3.10;;;16.40;67.20;;;;;;4955381;28;20037;-67
2023/05/04 06:23:11;;;;;;;7.82;3.38;;;16.50;66.10;;;;;;4966604;28;20066;-67
2023/05/04 06:25:36;;;;;;;6.35;3.13;;;16.60;65.90;;;;;;4965057;28;20023;-67
2023/05/04 06:28:02;;;;;;;6.03;2.38;;;16.60;64.50;;;;;;4962097;28;20390;-67
2023/05/04 06:30:29;;;;;;;7.18;2.42;;;16.60;64.20;;;;;;4959811;28;20046;-67
2023/05/04 06:32:55;;;;;;;6.03;2.65;;;16.60;63.80;;;;;;4961789;28;20035;-68
2023/05/04 06:35:21;;;;;;;8.80;2.72;;;16.80;62.30;;;;;;4965099;28;20038;-68
2023/05/04 06:37:46;;;;;;;11.35;2.92;;;17.10;62.00;;;;;;4964032;28;20062;-67
2023/05/04 06:40:14;;;;;;;8.70;3.05;;;17.60;61.70;;;;;;4959272;28;20027;-68
2023/05/04 06:42:40;;;;;;;8.00;2.83;;;18.10;59.20;;;;;;4968259;28;20027;-67
2023/05/04 06:45:06;;;;;;;5.18;2.40;;;18.40;58.90;;;;;;4967941;28;20034;-67
2023/05/04 06:47:37;;;;;;;7.18;3.00;;;18.40;57.70;;;;;;4961548;28;20023;-69
2023/05/04 06:50:10;;;;;;;5.03;2.35;;;18.40;57.80;;;;;;4963535;28;20617;-68
2023/05/04 06:52:41;;;;;;;4.63;2.58;;;18.50;56.90;;;;;;4961286;28;20135;-68
2023/05/04 06:55:07;;;;;;;6.20;2.50;;;18.30;57.40;;;;;;4961547;28;20501;-68
2023/05/04 06:57:33;;;;;;;9.57;2.97;;;18.30;57.60;;;;;;4968001;28;20034;-68
2023/05/04 06:59:58;;;;;;;9.50;2.60;;;18.30;57.60;;;;;;4964238;28;20042;-68
2023/05/04 07:02:24;;;;;;;5.68;2.70;;;18.20;57.90;;;;;;4959877;28;20062;-68
2023/05/04 07:04:51;;;;;;;8.35;2.95;;;18.20;56.90;;;;;;4965285;28;20133;-68
2023/05/04 07:07:18;;;;;;;8.95;2.55;;;18.20;57.30;;;;;;4962531;28;20133;-68
2023/05/04 07:09:46;;;;;;;4.65;2.45;;;18.30;55.10;;;;;;4966150;28;20027;-69
2023/05/04 07:12:12;;;;;;;5.00;2.38;;;18.30;56.00;;;;;;4966956;28;20036;-68
2023/05/04 07:14:38;;;;;;;9.52;2.53;;;18.20;56.60;;;;;;4961886;28;20239;-69
2023/05/04 07:17:04;;;;;;;7.30;2.20;;;18.00;58.40;;;;;;4957985;28;20489;-69
2023/05/04 07:19:30;;;;;;;7.47;2.13;;;17.90;57.60;;;;;;4963037;28;20142;-68
2023/05/04 07:21:56;;;;;;;3.55;2.00;;;17.80;57.90;;;;;;4962272;28;20038;-68
2023/05/04 07:24:22;;;;;;;4.93;2.40;;;17.80;58.20;;;;;;4965590;28;20026;-66
2023/05/04 07:26:47;;;;;;;6.05;2.10;;;17.80;56.60;;;;;;4962270;28;20047;-67
2023/05/04 07:29:13;;;;;;;7.20;2.00;;;17.90;55.50;;;;;;4968353;28;20030;-67
2023/05/04 07:31:39;;;;;;;5.68;2.13;;;17.90;56.50;;;;;;4964395;28;20034;-67
2023/05/04 07:34:05;;;;;;;5.20;2.60;;;18.00;53.10;;;;;;4971210;28;20140;-67
2023/05/04 07:36:34;;;;;;;5.75;2.22;;;18.00;54.20;;;;;;4968359;28;20038;-67
2023/05/04 07:39:00;;;;;;;6.25;2.10;;;18.10;55.10;;;;;;4964640;28;20647;-67
2023/05/04 07:41:25;;;;;;;7.70;2.28;;;18.30;53.30;;;;;;4966601;28;20034;-65
2023/05/04 07:43:51;;;;;;;9.55;2.10;;;18.40;53.90;;;;;;4966078;28;20037;-67
2023/05/04 07:46:17;;;;;;;4.78;2.35;;;18.50;53.30;;;;;;4963781;28;20035;-67
2023/05/04 07:48:43;;;;;;;5.40;1.95;;;18.60;53.90;;;;;;4970625;28;20022;-67
2023/05/04 07:51:13;;;;;;;5.05;2.15;;;18.80;53.40;;;;;;4966277;28;20042;-67
2023/05/04 07:53:39;;;;;;;5.90;1.92;;;19.10;51.30;;;;;;4962422;28;20039;-67
2023/05/04 07:56:11;;;;;;;7.65;1.95;;;19.30;52.70;;;;;;4963662;28;20042;-67
2023/05/04 07:58:37;;;;;;;5.95;1.92;;;19.30;52.00;;;;;;4962780;28;20049;-67
2023/05/04 08:01:03;;;;;;;4.75;2.15;;;19.30;52.30;;;;;;4964595;28;20031;-67
2023/05/04 08:03:30;;;;;;;3.30;1.85;;;19.10;51.90;;;;;;4964952;28;20666;-67
2023/05/04 08:05:57;;;;;;;4.95;2.20;;;19.10;51.60;;;;;;4963296;28;20062;-65
2023/05/04 08:08:23;;;;;;;6.00;1.63;;;19.40;51.40;;;;;;4968902;28;20093;-67
2023/05/04 08:10:48;;;;;;;3.90;1.60;;;19.70;52.70;;;;;;4964733;28;20042;-67
2023/05/04 08:13:14;;;;;;;6.30;1.90;;;19.90;50.10;;;;;;4963781;28;20045;-67
2023/05/04 08:15:40;;;;;;;8.73;2.58;;;20.20;50.10;;;;;;4966125;28;20039;-67
2023/05/04 08:18:06;;;;;;;6.93;1.70;;;20.20;49.10;;;;;;4968272;28;20222;-67
2023/05/04 08:20:32;;;;;;;5.55;1.90;;;20.10;47.90;;;;;;4968720;28;20035;-67
2023/05/04 08:22:58;;;;;;;6.03;1.63;;;20.00;49.70;;;;;;4964157;28;20096;-67
2023/05/04 08:25:24;;;;;;;5.97;1.77;;;19.90;50.90;;;;;;4965441;28;20086;-65
2023/05/04 08:27:50;;;;;;;8.00;2.00;;;19.80;50.60;;;;;;4961418;28;20030;-67
2023/05/04 08:30:18;;;;;;;4.53;1.85;;;19.80;49.20;;;;;;4965799;28;20516;-67
2023/05/04 08:32:44;;;;;;;3.08;1.58;;;19.80;48.10;;;;;;4965891;28;20038;-68
2023/05/04 08:35:10;;;;;;;4.32;2.05;;;19.80;47.10;;;;;;4968053;28;20113;-67
2023/05/04 08:37:36;;;;;;;6.25;1.77;;;19.90;49.60;;;;;;4960297;28;20052;-67
2023/05/04 08:40:03;;;;;;;4.15;1.77;;;20.00;49.30;;;;;;4965524;28;20129;-67
2023/05/04 08:42:31;;;;;;;6.05;1.92;;;20.10;48.70;;;;;;4967393;28;20038;-67
2023/05/04 08:44:57;;;;;;;10.23;1.90;;;20.10;48.30;;;;;;4964843;28;20885;-68
2023/05/04 08:47:27;;;;;;;5.63;1.90;;;20.00;47.40;;;;;;4964002;28;20034;-68
2023/05/04 08:49:55;;;;;;;6.80;3.78;;;20.00;48.60;;;;;;4965738;28;20035;-69
2023/05/04 08:52:25;;;;;;;3.92;1.90;;;20.00;45.80;;;;;;4964172;28;20817;-68
2023/05/04 08:54:54;;;;;;;6.25;1.60;;;20.10;45.80;;;;;;4968631;28;20030;-68
2023/05/04 08:57:22;;;;;;;3.65;1.75;;;20.20;46.30;;;;;;4969714;28;20045;-67
2023/05/04 08:59:52;;;;;;;5.65;1.60;;;20.60;45.90;;;;;;4971285;28;20038;-68
2023/05/04 09:02:20;;;;;;;4.53;1.52;;;21.00;45.50;;;;;;4968992;28;20089;-68
2023/05/04 09:04:47;;;;;;;8.02;1.85;;;21.50;43.50;;;;;;4964830;28;20038;-68
2023/05/04 09:07:13;;;;;;;5.18;1.50;;;21.50;42.70;;;;;;4966139;28;20035;-67
2023/05/04 09:09:39;;;;;;;4.40;1.52;;;21.00;43.60;;;;;;4960467;28;20049;-67
2023/05/04 09:12:04;;;;;;;3.58;1.60;;;20.90;42.90;;;;;;4963097;28;20041;-67
2023/05/04 09:14:35;;;;;;;3.67;1.50;;;21.00;42.90;;;;;;4964769;28;20125;-67
2023/05/04 09:17:02;;;;;;;4.30;1.50;;;21.20;43.40;;;;;;4962507;28;20481;-67
2023/05/04 09:19:32;;;;;;;4.07;1.50;;;21.40;42.60;;;;;;4973489;28;20797;-65
2023/05/04 09:22:12;;;;;;;4.65;1.48;;;21.40;43.20;;;;;;4967769;28;20034;-67
2023/05/04 09:24:38;;;;;;;2.78;1.58;;;21.60;44.10;;;;;;4965588;28;20026;-67
2023/05/04 09:27:17;;;;;;;4.45;1.50;;;21.70;43.50;;;;;;4967940;28;20739;-68
2023/05/04 09:29:43;;;;;;;4.22;1.90;;;21.60;43.90;;;;;;4965737;28;20052;-68
2023/05/04 09:32:14;;;;;;;4.80;1.95;;;21.30;43.40;;;;;;4968636;28;20039;-68
2023/05/04 09:34:50;;;;;;;4.45;1.77;;;21.40;43.20;;;;;;4966526;28;20913;-68
2023/05/04 09:37:19;;;;;;;6.88;2.20;;;21.60;43.90;;;;;;4964632;28;20042;-67
2023/05/04 09:40:03;;;;;;;4.53;1.90;;;21.70;43.30;;;;;;4965426;28;20356;-67
2023/05/04 09:42:29;;;;;;;6.35;1.58;;;21.90;43.60;;;;;;4971426;28;20471;-67
2023/05/04 09:45:02;;;;;;;3.78;1.60;;;22.20;43.50;;;;;;4969381;28;20117;-68
2023/05/04 09:47:33;;;;;;;3.38;1.45;;;22.60;42.00;;;;;;4968256;28;20089;-68
2023/05/04 09:50:09;;;;;;;4.53;1.63;;;22.70;41.70;;;;;;4972105;28;20462;-67
2023/05/04 09:52:36;;;;;;;7.80;1.52;;;22.50;41.90;;;;;;4965220;28;20037;-68
2023/05/04 09:55:03;;;;;;;4.38;1.65;;;22.30;40.70;;;;;;4967331;28;20035;-68
2023/05/04 09:57:29;;;;;;;8.50;1.80;;;22.00;40.10;;;;;;4966357;28;20117;-67
2023/05/04 09:59:55;;;;;;;5.50;2.10;;;22.00;40.50;;;;;;4969330;28;20137;-67
2023/05/04 10:02:21;;;;;;;7.85;1.88;;;21.80;40.50;;;;;;4964335;28;20762;-67
2023/05/04 10:04:49;;;;;;;6.75;1.77;;;21.70;41.40;;;;;;4964497;28;20042;-68
2023/05/04 10:07:16;;;;;;;3.00;1.30;;;21.60;42.90;;;;;;4970604;28;20039;-68
2023/05/04 10:09:42;;;;;;;3.90;1.48;;;21.50;43.70;;;;;;4967894;28;20034;-68
2023/05/04 10:12:08;;;;;;;4.43;1.63;;;21.60;42.40;;;;;;4968703;28;20045;-68
2023/05/04 10:14:34;;;;;;;3.83;1.70;;;21.80;41.90;;;;;;4969414;28;20038;-68
2023/05/04 10:17:20;;;;;;;3.45;1.70;;;21.70;41.90;;;;;;4969361;28;20588;-67
2023/05/04 10:20:09;;;;;;;3.95;1.15;;;21.80;41.90;;;;;;4970840;28;20038;-67
2023/05/04 10:23:09;;;;;;;3.35;1.60;;;21.70;41.90;;;;;;4972150;28;20031;-68
2023/05/04 10:25:37;;;;;;;3.28;1.75;;;21.90;41.40;;;;;;4966584;28;20038;-67
2023/05/04 10:28:47;;;;;;;4.57;1.70;;;21.80;39.50;;;;;;4964689;28;20043;-67
2023/05/04 10:31:13;;;;;;;6.05;1.77;;;21.90;39.80;;;;;;4962935;28;20043;-68
2023/05/04 10:33:42;;;;;;;4.25;1.65;;;21.90;40.60;;;;;;4968807;28;20038;-68
2023/05/04 10:36:09;;;;;;;2.83;1.60;;;21.90;40.80;;;;;;4965126;28;20080;-67
2023/05/04 10:38:36;;;;;;;4.15;1.52;;;22.10;39.90;;;;;;4971612;28;20348;-68
2023/05/04 10:41:15;;;;;;;4.38;1.50;;;22.10;40.70;;;;;;4970386;28;20035;-68
2023/05/04 10:43:41;;;;;;;4.63;1.50;;;22.20;40.10;;;;;;4967597;28;20026;-67
2023/05/04 10:46:21;;;;;;;6.18;1.42;;;22.00;41.30;;;;;;4970973;28;20505;-68
2023/05/04 10:48:48;;;;;;;5.88;1.65;;;21.80;39.80;;;;;;4966149;28;20031;-68
2023/05/04 10:51:18;;;;;;;1.92;1.50;;;21.90;40.60;;;;;;4970849;28;20035;-68
2023/05/04 10:53:44;;;;;;;8.20;1.75;;;22.00;40.00;;;;;;4968774;28;20686;-68
2023/05/04 10:56:24;;;;;;;4.18;1.42;;;22.30;39.40;;;;;;4967561;28;20058;-66
2023/05/04 10:58:51;;;;;;;7.57;2.05;;;22.40;41.20;;;;;;4969700;28;20113;-67
2023/05/04 11:01:18;;;;;;;3.63;1.38;;;22.20;39.10;;;;;;4971189;28;20066;-67
2023/05/04 11:03:44;;;;;;;2.80;1.50;;;22.10;39.30;;;;;;4971752;28;20793;-68
2023/05/04 11:06:23;;;;;;;5.30;1.67;;;22.00;39.60;;;;;;4964194;28;20035;-68
2023/05/04 11:09:00;;;;;;;5.43;1.77;;;21.80;39.90;;;;;;4966056;28;20461;-67
2023/05/04 11:11:26;;;;;;;5.55;1.73;;;21.60;40.30;;;;;;4967267;28;20142;-67
2023/05/04 11:13:53;;;;;;;5.88;1.70;;;21.40;41.10;;;;;;4965882;28;20034;-68
2023/05/04 11:16:23;;;;;;;5.32;1.50;;;21.30;41.10;;;;;;4971238;28;20094;-66
2023/05/04 11:18:49;;;;;;;5.15;1.70;;;21.20;41.80;;;;;;4966173;28;20039;-68
2023/05/04 11:21:25;;;;;;;4.53;1.60;;;21.30;43.10;;;;;;4966969;28;20030;-68
2023/05/04 11:23:58;;;;;;;5.68;1.60;;;21.00;41.90;;;;;;4963439;28;20070;-67
2023/05/04 11:26:25;;;;;;;3.90;1.70;;;20.90;42.30;;;;;;4960335;28;20034;-68
2023/05/04 11:28:51;;;;;;;5.32;1.85;;;21.00;42.30;;;;;;4969052;28;20411;-67
2023/05/04 11:31:18;;;;;;;4.50;1.70;;;21.00;42.50;;;;;;4961204;28;20042;-67
2023/05/04 11:33:53;;;;;;;4.60;1.80;;;21.10;43.20;;;;;;4971410;28;20034;-68
2023/05/04 11:36:20;;;;;;;4.75;1.52;;;21.30;41.50;;;;;;4961166;28;20039;-68
2023/05/04 11:38:46;;;;;;;5.65;1.60;;;21.30;42.10;;;;;;4966912;28;20675;-68
2023/05/04 11:41:12;;;;;;;3.70;1.77;;;21.30;41.60;;;;;;4959249;28;20034;-67
2023/05/04 11:43:41;;;;;;;4.05;1.77;;;21.00;40.50;;;;;;4968512;28;20022;-68
2023/05/04 11:46:07;;;;;;;4.45;1.60;;;21.10;42.40;;;;;;4961694;28;20039;-67
2023/05/04 11:48:37;;;;;;;4.32;1.48;;;20.90;40.10;;;;;;4974378;28;20121;-67
2023/05/04 11:51:04;;;;;;;4.43;2.00;;;20.80;41.50;;;;;;4967055;28;20349;-67
2023/05/04 11:53:40;;;;;;;2.53;1.80;;;20.70;41.60;;;;;;4968247;28;20799;-67
2023/05/04 11:56:09;;;;;;;3.47;1.73;;;20.60;42.40;;;;;;4968739;28;20035;-68
2023/05/04 11:58:35;;;;;;;2.80;1.42;;;20.60;42.10;;;;;;4966741;28;20791;-68
2023/05/04 12:01:02;;;;;;;3.47;1.95;;;20.70;42.30;;;;;;4964086;28;20194;-67
2023/05/04 12:03:30;;;;;;;4.65;1.92;;;20.80;41.10;;;;;;4968511;28;20058;-67
2023/05/04 12:05:57;;;;;;;6.60;2.15;;;20.80;41.10;;;;;;4963206;28;20346;-67
2023/05/04 12:08:28;;;;;;;4.30;1.88;;;20.90;42.40;;;;;;4968433;28;20030;-68
2023/05/04 12:11:24;;;;;;;4.63;1.95;;;20.80;42.00;;;;;;4973535;28;20040;-67
2023/05/04 12:14:05;;;;;;;3.72;1.77;;;20.80;41.10;;;;;;4965548;28;20042;-67
2023/05/04 12:16:31;;;;;;;3.47;1.85;;;20.70;41.50;;;;;;4968742;28;20546;-68
2023/05/04 12:19:11;;;;;;;4.65;1.58;;;20.70;41.50;;;;;;4959906;28;20054;-67
2023/05/04 12:21:51;;;;;;;2.35;1.50;;;20.80;41.00;;;;;;4966726;28;20034;-67
2023/05/04 12:24:20;;;;;;;5.80;1.85;;;20.80;40.20;;;;;;4962284;28;20110;-67
2023/05/04 12:26:46;;;;;;;6.55;1.90;;;20.80;41.60;;;;;;4969255;28;20033;-67
2023/05/04 12:29:12;;;;;;;2.45;1.60;;;20.80;40.80;;;;;;4969806;28;20043;-67
2023/05/04 12:31:38;;;;;;;4.55;1.95;;;20.80;41.60;;;;;;4965312;28;20030;-67
2023/05/04 12:34:03;;;;;;;4.95;1.80;;;20.80;41.80;;;;;;4962063;28;20034;-68
2023/05/04 12:36:29;;;;;;;4.47;1.83;;;20.80;41.70;;;;;;4968511;28;20406;-68
2023/05/04 12:38:55;;;;;;;3.03;1.67;;;20.80;42.00;;;;;;4969537;28;20035;-67
2023/05/04 12:41:21;;;;;;;4.10;1.70;;;20.80;41.60;;;;;;4967604;28;20041;-67
2023/05/04 12:43:48;;;;;;;4.28;2.00;;;20.90;40.70;;;;;;4964180;28;20045;-68
2023/05/04 12:46:16;;;;;;;5.63;2.20;;;21.00;41.00;;;;;;4968148;28;20509;-67
2023/05/04 12:48:42;;;;;;;8.80;4.10;;;21.10;42.10;;;;;;4969380;28;20080;-69
2023/05/04 12:51:07;;;;;;;28.10;16.10;;;21.10;40.80;;;;;;4969054;28;20035;-68
2023/05/04 12:53:33;;;;;;;16.90;8.82;;;21.10;42.10;;;;;;4967161;28;20088;-66